sensor_id;sensor_type;location;lat;lon;timestamp;pressure;altitude;pressure_sealevel;temperature;humidity
69455;BME280;56660;51.986;5.930;2022-08-21T00:00:00;101702.06;;;18.45;60.71
69455;BME280;56660;51.986;5.930;2022-08-21T00:02:26;101703.25;;;18.43;60.88
69455;BME280;56660;51.986;5.930;2022-08-21T00:04:54;101701.75;;;18.40;60.96
69455;BME280;56660;51.986;5.930;2022-08-21T00:07:20;101703.28;;;18.35;61.20
69455;BME280;56660;51.986;5.930;2022-08-21T00:09:46;101701.97;;;18.30;61.13
69455;BME280;56660;51.986;5.930;2022-08-21T00:12:12;101698.94;;;18.25;61.41
69455;BME280;56660;51.986;5.930;2022-08-21T00:14:40;101697.41;;;18.23;61.31
69455;BME280;56660;51.986;5.930;2022-08-21T00:17:06;101697.59;;;18.21;61.41
69455;BME280;56660;51.986;5.930;2022-08-21T00:19:32;101696.03;;;18.19;61.71
69455;BME280;56660;51.986;5.930;2022-08-21T00:21:59;101697.22;;;18.16;61.41
69455;BME280;56660;51.986;5.930;2022-08-21T00:24:24;101692.84;;;18.15;61.73
69455;BME280;56660;51.986;5.930;2022-08-21T00:26:51;101688.63;;;18.13;61.44
69455;BME280;56660;51.986;5.930;2022-08-21T00:29:17;101688.97;;;18.10;61.68
69455;BME280;56660;51.986;5.930;2022-08-21T00:31:43;101694.72;;;18.07;61.79
69455;BME280;56660;51.986;5.930;2022-08-21T00:34:10;101693.22;;;18.04;61.71
69455;BME280;56660;51.986;5.930;2022-08-21T00:36:37;101698.97;;;18.01;61.81
69455;BME280;56660;51.986;5.930;2022-08-21T00:39:05;101698.28;;;17.99;61.84
69455;BME280;56660;51.986;5.930;2022-08-21T00:41:32;101697.44;;;17.98;62.07
69455;BME280;56660;51.986;5.930;2022-08-21T00:43:58;101694.25;;;17.95;62.09
69455;BME280;56660;51.986;5.930;2022-08-21T00:46:23;101694.25;;;17.95;61.95
69455;BME280;56660;51.986;5.930;2022-08-21T00:48:49;101693.56;;;17.93;62.00
69455;BME280;56660;51.986;5.930;2022-08-21T00:51:15;101691.22;;;17.90;62.19
69455;BME280;56660;51.986;5.930;2022-08-21T00:53:47;101689.69;;;17.87;62.33
69455;BME280;56660;51.986;5.930;2022-08-21T00:56:15;101694.25;;;17.87;62.31
69455;BME280;56660;51.986;5.930;2022-08-21T00:58:41;101689.19;;;17.84;62.04
69455;BME280;56660;51.986;5.930;2022-08-21T01:01:08;101681.78;;;17.78;62.28
69455;BME280;56660;51.986;5.930;2022-08-21T01:03:34;101686.34;;;17.77;62.44
69455;BME280;56660;51.986;5.930;2022-08-21T01:06:00;101685.00;;;17.73;62.31
69455;BME280;56660;51.986;5.930;2022-08-21T01:08:27;101680.94;;;17.69;62.50
69455;BME280;56660;51.986;5.930;2022-08-21T01:10:53;101683.81;;;17.67;62.69
69455;BME280;56660;51.986;5.930;2022-08-21T01:13:20;101678.72;;;17.64;62.52
69455;BME280;56660;51.986;5.930;2022-08-21T01:15:47;101679.06;;;17.61;62.87
69455;BME280;56660;51.986;5.930;2022-08-21T01:18:16;101679.22;;;17.60;62.80
69455;BME280;56660;51.986;5.930;2022-08-21T01:20:42;101683.97;;;17.58;62.98
69455;BME280;56660;51.986;5.930;2022-08-21T01:23:13;101687.00;;;17.55;62.81
69455;BME280;56660;51.986;5.930;2022-08-21T01:25:39;101695.28;;;17.53;63.03
69455;BME280;56660;51.986;5.930;2022-08-21T01:28:07;101704.91;;;17.48;63.16
69455;BME280;56660;51.986;5.930;2022-08-21T01:30:36;101693.25;;;17.47;63.04
69455;BME280;56660;51.986;5.930;2022-08-21T01:33:05;101695.28;;;17.45;63.24
69455;BME280;56660;51.986;5.930;2022-08-21T01:35:32;101698.16;;;17.44;63.29
69455;BME280;56660;51.986;5.930;2022-08-21T01:37:58;101684.47;;;17.37;63.55
69455;BME280;56660;51.986;5.930;2022-08-21T01:40:25;101691.91;;;17.35;63.38
69455;BME280;56660;51.986;5.930;2022-08-21T01:42:51;101695.63;;;17.34;63.65
69455;BME280;56660;51.986;5.930;2022-08-21T01:45:16;101691.25;;;17.33;63.43
69455;BME280;56660;51.986;5.930;2022-08-21T01:47:42;101693.09;;;17.32;63.58
69455;BME280;56660;51.986;5.930;2022-08-21T01:50:10;101687.00;;;17.30;63.71
69455;BME280;56660;51.986;5.930;2022-08-21T01:52:38;101691.75;;;17.28;63.55
69455;BME280;56660;51.986;5.930;2022-08-21T01:55:04;101690.91;;;17.28;63.61
69455;BME280;56660;51.986;5.930;2022-08-21T01:57:32;101690.06;;;17.27;63.65
69455;BME280;56660;51.986;5.930;2022-08-21T01:59:58;101687.34;;;17.27;63.63
69455;BME280;56660;51.986;5.930;2022-08-21T02:02:24;101683.13;;;17.25;63.55
69455;BME280;56660;51.986;5.930;2022-08-21T02:04:50;101678.22;;;17.20;63.64
69455;BME280;56660;51.986;5.930;2022-08-21T02:07:16;101675.69;;;17.19;63.60
69455;BME280;56660;51.986;5.930;2022-08-21T02:09:42;101683.13;;;17.17;63.77
69455;BME280;56660;51.986;5.930;2022-08-21T02:12:07;101675.19;;;17.15;63.88
69455;BME280;56660;51.986;5.930;2022-08-21T02:14:35;101681.59;;;17.14;63.63
69455;BME280;56660;51.986;5.930;2022-08-21T02:17:04;101670.94;;;17.13;63.90
69455;BME280;56660;51.986;5.930;2022-08-21T02:19:30;101677.19;;;17.13;63.96
69455;BME280;56660;51.986;5.930;2022-08-21T02:21:56;101677.72;;;17.09;63.83
69455;BME280;56660;51.986;5.930;2022-08-21T02:24:21;101669.59;;;17.09;64.05
69455;BME280;56660;51.986;5.930;2022-08-21T02:26:47;101665.22;;;17.08;63.95
69455;BME280;56660;51.986;5.930;2022-08-21T02:29:12;101668.91;;;17.07;64.00
69455;BME280;56660;51.986;5.930;2022-08-21T02:31:39;101663.84;;;17.03;64.20
69455;BME280;56660;51.986;5.930;2022-08-21T02:49:50;101660.63;;;16.92;64.14
69455;BME280;56660;51.986;5.930;2022-08-21T03:10:26;101649.81;;;16.76;64.29
69455;BME280;56660;51.986;5.930;2022-08-21T03:12:51;101662.63;;;16.74;64.40
69455;BME280;56660;51.986;5.930;2022-08-21T03:15:18;101651.31;;;16.70;64.14
69455;BME280;56660;51.986;5.930;2022-08-21T03:17:45;101655.88;;;16.69;64.45
69455;BME280;56660;51.986;5.930;2022-08-21T03:20:12;101647.94;;;16.68;64.40
69455;BME280;56660;51.986;5.930;2022-08-21T03:22:39;101650.06;;;16.64;64.54
69455;BME280;56660;51.986;5.930;2022-08-21T03:25:06;101653.66;;;16.65;64.78
69455;BME280;56660;51.986;5.930;2022-08-21T03:27:34;101651.31;;;16.70;64.53
69455;BME280;56660;51.986;5.930;2022-08-21T03:30:00;101654.19;;;16.68;64.60
69455;BME280;56660;51.986;5.930;2022-08-21T03:32:26;101643.53;;;16.67;64.75
69455;BME280;56660;51.986;5.930;2022-08-21T03:34:51;101649.09;;;16.65;64.57
69455;BME280;56660;51.986;5.930;2022-08-21T03:37:17;101643.16;;;16.62;64.82
69455;BME280;56660;51.986;5.930;2022-08-21T03:39:43;101649.72;;;16.59;64.76
69455;BME280;56660;51.986;5.930;2022-08-21T03:42:09;101652.94;;;16.55;64.73
69455;BME280;56660;51.986;5.930;2022-08-21T03:44:36;101653.09;;;16.53;64.94
69455;BME280;56660;51.986;5.930;2022-08-21T03:47:02;101646.50;;;16.48;65.11
69455;BME280;56660;51.986;5.930;2022-08-21T03:49:28;101648.50;;;16.46;64.81
69455;BME280;56660;51.986;5.930;2022-08-21T03:51:54;101650.53;;;16.44;64.86
69455;BME280;56660;51.986;5.930;2022-08-21T03:54:19;101647.47;;;16.38;64.97
69455;BME280;56660;51.986;5.930;2022-08-21T03:56:45;101643.94;;;16.38;65.20
69455;BME280;56660;51.986;5.930;2022-08-21T03:59:11;101647.81;;;16.35;65.21
69455;BME280;56660;51.986;5.930;2022-08-21T04:01:38;101643.56;;;16.33;65.21
69455;BME280;56660;51.986;5.930;2022-08-21T04:04:05;101651.84;;;16.31;65.11
69455;BME280;56660;51.986;5.930;2022-08-21T04:06:31;101648.44;;;16.29;65.00
69455;BME280;56660;51.986;5.930;2022-08-21T04:08:57;101647.09;;;16.25;65.36
69455;BME280;56660;51.986;5.930;2022-08-21T04:11:22;101649.94;;;16.24;65.12
69455;BME280;56660;51.986;5.930;2022-08-21T04:13:48;101659.22;;;16.21;65.43
69455;BME280;56660;51.986;5.930;2022-08-21T04:16:13;101650.44;;;16.19;65.50
69455;BME280;56660;51.986;5.930;2022-08-21T04:18:41;101641.66;;;16.17;65.44
69455;BME280;56660;51.986;5.930;2022-08-21T04:21:07;101632.88;;;16.15;65.20
69455;BME280;56660;51.986;5.930;2022-08-21T04:23:35;101633.88;;;16.14;65.22
69455;BME280;56660;51.986;5.930;2022-08-21T04:26:00;101634.22;;;16.11;65.35
69455;BME280;56660;51.986;5.930;2022-08-21T04:28:26;101638.94;;;16.09;65.50
69455;BME280;56660;51.986;5.930;2022-08-21T04:30:53;101631.16;;;16.06;65.53
69455;BME280;56660;51.986;5.930;2022-08-21T04:33:19;101629.63;;;16.03;65.50
69455;BME280;56660;51.986;5.930;2022-08-21T04:35:46;101636.72;;;16.04;65.70
69455;BME280;56660;51.986;5.930;2022-08-21T04:38:12;101628.94;;;16.01;65.58
69455;BME280;56660;51.986;5.930;2022-08-21T04:40:38;101636.34;;;15.99;65.79
69455;BME280;56660;51.986;5.930;2022-08-21T04:43:12;101636.19;;;16.01;66.15
69455;BME280;56660;51.986;5.930;2022-08-21T04:45:39;101630.78;;;16.01;66.06
69455;BME280;56660;51.986;5.930;2022-08-21T04:48:07;101634.34;;;16.01;66.09
69455;BME280;56660;51.986;5.930;2022-08-21T04:50:36;101635.19;;;16.02;66.24
69455;BME280;56660;51.986;5.930;2022-08-21T04:53:10;101650.19;;;16.04;66.19
69455;BME280;56660;51.986;5.930;2022-08-21T04:55:43;101643.78;;;16.05;66.40
69455;BME280;56660;51.986;5.930;2022-08-21T04:58:09;101647.19;;;16.07;66.29
69455;BME280;56660;51.986;5.930;2022-08-21T05:00:38;101640.09;;;16.06;66.33
69455;BME280;56660;51.986;5.930;2022-08-21T05:03:04;101639.94;;;16.08;66.31
69455;BME280;56660;51.986;5.930;2022-08-21T05:05:32;101641.63;;;16.09;66.67
69455;BME280;56660;51.986;5.930;2022-08-21T05:07:59;101640.78;;;16.08;66.17
69455;BME280;56660;51.986;5.930;2022-08-21T05:10:29;101646.00;;;16.10;66.31
69455;BME280;56660;51.986;5.930;2022-08-21T05:12:57;101645.84;;;16.12;66.43
69455;BME280;56660;51.986;5.930;2022-08-21T05:15:28;101647.06;;;16.17;66.44
69455;BME280;56660;51.986;5.930;2022-08-21T05:17:54;101653.28;;;16.18;66.34
69455;BME280;56660;51.986;5.930;2022-08-21T05:20:20;101655.66;;;16.21;66.39
69455;BME280;56660;51.986;5.930;2022-08-21T05:22:50;101661.59;;;16.24;66.45
69455;BME280;56660;51.986;5.930;2022-08-21T05:25:19;101659.56;;;16.26;66.66
69455;BME280;56660;51.986;5.930;2022-08-21T05:27:51;101663.78;;;16.29;66.44
69455;BME280;56660;51.986;5.930;2022-08-21T05:30:17;101659.75;;;16.33;66.67
69455;BME280;56660;51.986;5.930;2022-08-21T05:32:43;101666.38;;;16.38;66.88
69455;BME280;56660;51.986;5.930;2022-08-21T05:35:09;101663.84;;;16.45;66.74
69455;BME280;56660;51.986;5.930;2022-08-21T05:37:34;101668.28;;;16.54;66.64
69455;BME280;56660;51.986;5.930;2022-08-21T05:40:00;101671.16;;;16.61;66.72
69455;BME280;56660;51.986;5.930;2022-08-21T05:42:32;101673.06;;;16.68;66.66
69455;BME280;56660;51.986;5.930;2022-08-21T05:45:01;101663.13;;;16.77;66.46
69455;BME280;56660;51.986;5.930;2022-08-21T05:47:28;101672.63;;;16.89;66.32
69455;BME280;56660;51.986;5.930;2022-08-21T05:49:54;101667.22;;;16.97;66.31
69455;BME280;56660;51.986;5.930;2022-08-21T05:52:20;101671.28;;;17.10;66.06
69455;BME280;56660;51.986;5.930;2022-08-21T05:54:46;101668.25;;;17.21;66.24
69455;BME280;56660;51.986;5.930;2022-08-21T05:57:12;101669.94;;;17.30;66.45
69455;BME280;56660;51.986;5.930;2022-08-21T05:59:38;101666.91;;;17.41;66.62
69455;BME280;56660;51.986;5.930;2022-08-21T06:02:05;101666.22;;;17.55;66.12
69455;BME280;56660;51.986;5.930;2022-08-21T06:04:31;101667.59;;;17.67;65.93
69455;BME280;56660;51.986;5.930;2022-08-21T06:07:00;101658.94;;;17.80;65.85
69455;BME280;56660;51.986;5.930;2022-08-21T06:09:26;101666.34;;;17.94;65.96
69455;BME280;56660;51.986;5.930;2022-08-21T06:11:51;101660.72;;;18.04;65.60
69455;BME280;56660;51.986;5.930;2022-08-21T06:14:17;101648.50;;;18.16;65.34
69455;BME280;56660;51.986;5.930;2022-08-21T06:16:42;101651.53;;;18.29;65.20
69455;BME280;56660;51.986;5.930;2022-08-21T06:22:24;101657.84;;;18.53;64.58
69455;BME280;56660;51.986;5.930;2022-08-21T06:25:12;101663.38;;;18.68;64.53
69455;BME280;56660;51.986;5.930;2022-08-21T06:27:50;101661.31;;;18.78;64.01
69455;BME280;56660;51.986;5.930;2022-08-21T06:30:15;101662.09;;;18.86;64.10
69455;BME280;56660;51.986;5.930;2022-08-21T06:32:41;101658.66;;;18.92;63.54
69455;BME280;56660;51.986;5.930;2022-08-21T06:35:08;101656.91;;;19.00;63.72
69455;BME280;56660;51.986;5.930;2022-08-21T06:37:34;101650.88;;;19.12;63.49
69455;BME280;56660;51.986;5.930;2022-08-21T06:40:06;101650.28;;;19.25;63.31
69455;BME280;56660;51.986;5.930;2022-08-21T06:42:35;101656.28;;;19.35;63.16
69455;BME280;56660;51.986;5.930;2022-08-21T06:45:03;101667.06;;;19.43;62.92
69455;BME280;56660;51.986;5.930;2022-08-21T06:47:29;101665.00;;;19.45;63.06
69455;BME280;56660;51.986;5.930;2022-08-21T06:50:01;101659.03;;;19.50;62.74
69455;BME280;56660;51.986;5.930;2022-08-21T06:52:28;101662.25;;;19.53;62.90
69455;BME280;56660;51.986;5.930;2022-08-21T06:54:53;101663.22;;;19.61;63.01
69455;BME280;56660;51.986;5.930;2022-08-21T06:57:18;101649.94;;;19.66;62.45
69455;BME280;56660;51.986;5.930;2022-08-21T06:59:44;101659.69;;;19.75;62.69
69455;BME280;56660;51.986;5.930;2022-08-21T07:02:10;101662.31;;;19.83;62.63
69455;BME280;56660;51.986;5.930;2022-08-21T07:04:35;101667.00;;;19.89;62.55
69455;BME280;56660;51.986;5.930;2022-08-21T07:07:01;101661.66;;;19.96;62.37
69455;BME280;56660;51.986;5.930;2022-08-21T07:09:28;101658.84;;;20.04;62.46
69455;BME280;56660;51.986;5.930;2022-08-21T07:11:54;101665.88;;;20.13;62.31
69455;BME280;56660;51.986;5.930;2022-08-21T07:14:20;101665.31;;;20.17;61.98
69455;BME280;56660;51.986;5.930;2022-08-21T07:16:46;101659.13;;;20.23;61.62
69455;BME280;56660;51.986;5.930;2022-08-21T07:19:11;101649.56;;;20.28;61.74
69455;BME280;56660;51.986;5.930;2022-08-21T07:21:37;101659.69;;;20.34;61.55
69455;BME280;56660;51.986;5.930;2022-08-21T07:24:02;101657.25;;;20.39;61.58
69455;BME280;56660;51.986;5.930;2022-08-21T07:26:29;101658.19;;;20.46;61.72
69455;BME280;56660;51.986;5.930;2022-08-21T07:28:55;101659.31;;;20.51;61.23
69455;BME280;56660;51.986;5.930;2022-08-21T07:31:21;101653.94;;;20.58;61.33
69455;BME280;56660;51.986;5.930;2022-08-21T07:33:48;101645.50;;;20.68;61.45
69455;BME280;56660;51.986;5.930;2022-08-21T07:36:14;101653.72;;;20.74;61.21
69455;BME280;56660;51.986;5.930;2022-08-21T07:38:41;101646.50;;;20.81;61.15
69455;BME280;56660;51.986;5.930;2022-08-21T07:41:09;101646.00;;;20.93;60.95
69455;BME280;56660;51.986;5.930;2022-08-21T07:43:41;101639.41;;;21.02;60.74
69455;BME280;56660;51.986;5.930;2022-08-21T07:46:06;101641.34;;;21.08;60.54
69455;BME280;56660;51.986;5.930;2022-08-21T07:48:32;101653.13;;;21.15;60.49
69455;BME280;56660;51.986;5.930;2022-08-21T07:50:57;101648.63;;;21.22;60.43
69455;BME280;56660;51.986;5.930;2022-08-21T07:53:26;101639.66;;;21.28;60.56
69455;BME280;56660;51.986;5.930;2022-08-21T07:55:52;101637.66;;;21.37;60.42
69455;BME280;56660;51.986;5.930;2022-08-21T07:58:17;101639.38;;;21.44;60.48
69455;BME280;56660;51.986;5.930;2022-08-21T08:00:44;101643.25;;;21.57;60.38
69455;BME280;56660;51.986;5.930;2022-08-21T08:03:09;101645.38;;;21.61;60.19
69455;BME280;56660;51.986;5.930;2022-08-21T08:05:35;101643.28;;;21.63;60.20
69455;BME280;56660;51.986;5.930;2022-08-21T08:08:02;101639.47;;;21.58;60.01
69455;BME280;56660;51.986;5.930;2022-08-21T08:10:28;101646.75;;;21.50;60.28
69455;BME280;56660;51.986;5.930;2022-08-21T08:12:53;101645.63;;;21.38;60.72
69455;BME280;56660;51.986;5.930;2022-08-21T08:15:19;101646.25;;;21.40;60.98
69455;BME280;56660;51.986;5.930;2022-08-21T08:17:49;101643.84;;;21.52;60.91
69455;BME280;56660;51.986;5.930;2022-08-21T08:20:15;101642.66;;;21.61;60.51
69455;BME280;56660;51.986;5.930;2022-08-21T08:22:42;101648.78;;;21.70;61.15
69455;BME280;56660;51.986;5.930;2022-08-21T08:25:08;101645.72;;;21.79;60.93
69455;BME280;56660;51.986;5.930;2022-08-21T08:27:35;101630.25;;;21.87;60.75
69455;BME280;56660;51.986;5.930;2022-08-21T08:30:00;101642.91;;;22.01;60.76
69455;BME280;56660;51.986;5.930;2022-08-21T08:32:26;101641.34;;;22.13;60.36
69455;BME280;56660;51.986;5.930;2022-08-21T08:34:52;101642.59;;;22.17;60.24
69455;BME280;56660;51.986;5.930;2022-08-21T08:37:18;101627.78;;;22.26;60.38
69455;BME280;56660;51.986;5.930;2022-08-21T08:39:45;101631.16;;;22.35;60.21
69455;BME280;56660;51.986;5.930;2022-08-21T08:42:11;101621.75;;;22.44;60.19
69455;BME280;56660;51.986;5.930;2022-08-21T08:44:38;101624.75;;;22.56;60.12
69455;BME280;56660;51.986;5.930;2022-08-21T08:47:04;101619.31;;;22.69;59.61
69455;BME280;56660;51.986;5.930;2022-08-21T08:49:31;101621.66;;;22.78;59.14
69455;BME280;56660;51.986;5.930;2022-08-21T08:52:03;101621.06;;;22.90;58.99
69455;BME280;56660;51.986;5.930;2022-08-21T08:54:34;101620.66;;;22.99;59.20
69455;BME280;56660;51.986;5.930;2022-08-21T08:57:06;101619.22;;;23.10;59.18
69455;BME280;56660;51.986;5.930;2022-08-21T08:59:38;101611.88;;;23.17;58.77
69455;BME280;56660;51.986;5.930;2022-08-21T09:02:06;101617.53;;;23.22;58.26
69455;BME280;56660;51.986;5.930;2022-08-21T09:04:36;101622.16;;;23.28;58.09
69455;BME280;56660;51.986;5.930;2022-08-21T09:07:06;101631.81;;;23.37;57.73
69455;BME280;56660;51.986;5.930;2022-08-21T09:09:45;101620.09;;;23.44;57.33
69455;BME280;56660;51.986;5.930;2022-08-21T09:12:32;101620.28;;;23.49;56.97
69455;BME280;56660;51.986;5.930;2022-08-21T09:15:06;101612.13;;;23.55;56.69
69455;BME280;56660;51.986;5.930;2022-08-21T09:17:41;101609.16;;;23.63;57.15
69455;BME280;56660;51.986;5.930;2022-08-21T09:20:22;101609.16;;;23.77;56.97
69455;BME280;56660;51.986;5.930;2022-08-21T09:22:59;101615.59;;;23.95;56.55
69455;BME280;56660;51.986;5.930;2022-08-21T09:25:34;101606.56;;;24.01;54.92
69455;BME280;56660;51.986;5.930;2022-08-21T09:28:07;101605.94;;;23.99;55.00
69455;BME280;56660;51.986;5.930;2022-08-21T09:30:33;101608.47;;;23.94;54.68
69455;BME280;56660;51.986;5.930;2022-08-21T09:32:58;101604.06;;;23.87;55.49
69455;BME280;56660;51.986;5.930;2022-08-21T09:35:24;101590.00;;;23.90;55.17
69455;BME280;56660;51.986;5.930;2022-08-21T09:37:51;101605.53;;;23.96;54.48
69455;BME280;56660;51.986;5.930;2022-08-21T09:40:36;101598.34;;;24.01;54.21
69455;BME280;56660;51.986;5.930;2022-08-21T09:43:05;101607.59;;;24.07;53.59
69455;BME280;56660;51.986;5.930;2022-08-21T09:45:35;101606.78;;;24.00;54.31
69455;BME280;56660;51.986;5.930;2022-08-21T09:48:08;101608.66;;;23.99;54.00
69455;BME280;56660;51.986;5.930;2022-08-21T09:50:35;101617.47;;;24.08;54.33
69455;BME280;56660;51.986;5.930;2022-08-21T09:53:01;101614.69;;;24.15;53.98
69455;BME280;56660;51.986;5.930;2022-08-21T09:55:30;101604.59;;;24.22;53.85
69455;BME280;56660;51.986;5.930;2022-08-21T09:58:05;101616.09;;;24.37;53.90
69455;BME280;56660;51.986;5.930;2022-08-21T10:00:32;101619.63;;;24.51;54.17
69455;BME280;56660;51.986;5.930;2022-08-21T10:03:14;101614.50;;;24.61;53.46
69455;BME280;56660;51.986;5.930;2022-08-21T10:05:49;101613.81;;;24.72;53.09
69455;BME280;56660;51.986;5.930;2022-08-21T10:08:17;101611.41;;;24.89;53.06
69455;BME280;56660;51.986;5.930;2022-08-21T10:10:44;101611.94;;;25.04;52.92
69455;BME280;56660;51.986;5.930;2022-08-21T10:13:19;101608.88;;;25.19;51.99
69455;BME280;56660;51.986;5.930;2022-08-21T10:15:51;101604.81;;;25.28;51.40
69455;BME280;56660;51.986;5.930;2022-08-21T10:18:24;101609.28;;;25.22;51.42
69455;BME280;56660;51.986;5.930;2022-08-21T10:20:56;101612.91;;;25.16;51.59
69455;BME280;56660;51.986;5.930;2022-08-21T10:23:37;101613.50;;;25.18;51.82
69455;BME280;56660;51.986;5.930;2022-08-21T10:26:17;101609.81;;;25.31;51.33
69455;BME280;56660;51.986;5.930;2022-08-21T10:28:55;101603.34;;;25.50;50.96
69455;BME280;56660;51.986;5.930;2022-08-21T10:31:28;101604.88;;;25.64;50.48
69455;BME280;56660;51.986;5.930;2022-08-21T10:34:07;101596.16;;;25.74;50.87
69455;BME280;56660;51.986;5.930;2022-08-21T10:36:46;101593.34;;;25.81;50.98
69455;BME280;56660;51.986;5.930;2022-08-21T10:39:26;101594.66;;;25.78;50.03
69455;BME280;56660;51.986;5.930;2022-08-21T10:42:06;101597.84;;;25.75;50.09
69455;BME280;56660;51.986;5.930;2022-08-21T10:44:49;101594.41;;;25.80;49.85
69455;BME280;56660;51.986;5.930;2022-08-21T10:47:28;101599.53;;;25.76;49.17
69455;BME280;56660;51.986;5.930;2022-08-21T10:49:59;101596.06;;;25.62;49.79
69455;BME280;56660;51.986;5.930;2022-08-21T10:52:36;101597.94;;;25.62;49.32
69455;BME280;56660;51.986;5.930;2022-08-21T10:55:15;101597.84;;;25.75;49.81
69455;BME280;56660;51.986;5.930;2022-08-21T10:57:46;101594.66;;;25.96;49.64
69455;BME280;56660;51.986;5.930;2022-08-21T11:00:17;101597.94;;;26.23;49.91
69455;BME280;56660;51.986;5.930;2022-08-21T11:02:47;101582.69;;;26.46;49.46
69455;BME280;56660;51.986;5.930;2022-08-21T11:05:19;101598.34;;;26.57;47.30
69455;BME280;56660;51.986;5.930;2022-08-21T11:07:51;101593.91;;;26.44;47.31
69455;BME280;56660;51.986;5.930;2022-08-21T11:10:21;101593.00;;;26.32;47.04
69455;BME280;56660;51.986;5.930;2022-08-21T11:12:50;101592.91;;;26.39;48.05
69455;BME280;56660;51.986;5.930;2022-08-21T11:15:26;101600.25;;;26.56;47.80
69455;BME280;56660;51.986;5.930;2022-08-21T11:17:59;101589.09;;;26.70;47.05
69455;BME280;56660;51.986;5.930;2022-08-21T11:20:30;101596.91;;;26.84;47.96
69455;BME280;56660;51.986;5.930;2022-08-21T11:23:03;101591.13;;;27.04;47.81
69455;BME280;56660;51.986;5.930;2022-08-21T11:25:37;101590.19;;;27.22;46.10
69455;BME280;56660;51.986;5.930;2022-08-21T11:28:08;101593.91;;;27.51;46.41
69455;BME280;56660;51.986;5.930;2022-08-21T11:30:44;101592.97;;;27.80;44.86
69455;BME280;56660;51.986;5.930;2022-08-21T11:33:23;101585.44;;;27.76;44.89
69455;BME280;56660;51.986;5.930;2022-08-21T11:36:06;101583.16;;;27.84;45.40
69455;BME280;56660;51.986;5.930;2022-08-21T11:38:41;101580.13;;;27.98;45.25
69455;BME280;56660;51.986;5.930;2022-08-21T11:41:20;101573.09;;;27.90;44.48
69455;BME280;56660;51.986;5.930;2022-08-21T11:43:53;101578.38;;;27.80;44.99
69455;BME280;56660;51.986;5.930;2022-08-21T11:46:32;101577.44;;;27.74;44.52
69455;BME280;56660;51.986;5.930;2022-08-21T11:49:13;101568.81;;;27.82;45.56
69455;BME280;56660;51.986;5.930;2022-08-21T11:51:48;101577.09;;;28.23;45.27
69455;BME280;56660;51.986;5.930;2022-08-21T11:54:21;101574.78;;;28.60;44.82
69455;BME280;56660;51.986;5.930;2022-08-21T11:56:53;101566.13;;;28.96;43.33
69455;BME280;56660;51.986;5.930;2022-08-21T11:59:27;101571.38;;;29.31;43.43
69455;BME280;56660;51.986;5.930;2022-08-21T12:02:01;101569.34;;;29.60;43.95
69455;BME280;56660;51.986;5.930;2022-08-21T12:04:32;101557.25;;;29.83;42.56
69455;BME280;56660;51.986;5.930;2022-08-21T12:07:10;101563.31;;;30.02;42.16
69455;BME280;56660;51.986;5.930;2022-08-21T12:09:38;101574.66;;;30.27;42.43
69455;BME280;56660;51.986;5.930;2022-08-21T12:12:10;101571.66;;;30.56;41.99
69455;BME280;56660;51.986;5.930;2022-08-21T12:15:06;101574.16;;;30.84;42.24
69455;BME280;56660;51.986;5.930;2022-08-21T12:17:54;101567.22;;;31.14;42.10
69455;BME280;56660;51.986;5.930;2022-08-21T12:20:25;101567.47;;;31.39;39.75
69455;BME280;56660;51.986;5.930;2022-08-21T12:23:02;101566.84;;;31.69;39.94
69455;BME280;56660;51.986;5.930;2022-08-21T12:25:36;101578.81;;;31.85;38.54
69455;BME280;56660;51.986;5.930;2022-08-21T12:28:06;101578.63;;;31.54;38.78
69455;BME280;56660;51.986;5.930;2022-08-21T12:30:34;101581.22;;;31.02;37.41
69455;BME280;56660;51.986;5.930;2022-08-21T12:33:04;101585.59;;;30.98;39.64
69455;BME280;56660;51.986;5.930;2022-08-21T12:35:43;101571.81;;;31.30;38.82
69455;BME280;56660;51.986;5.930;2022-08-21T12:38:09;101588.75;;;31.12;39.23
69455;BME280;56660;51.986;5.930;2022-08-21T12:40:40;101581.50;;;31.32;39.77
69455;BME280;56660;51.986;5.930;2022-08-21T12:43:11;101582.34;;;31.70;38.83
69455;BME280;56660;51.986;5.930;2022-08-21T12:45:40;101577.53;;;32.13;38.00
69455;BME280;56660;51.986;5.930;2022-08-21T12:48:11;101574.91;;;32.53;38.56
69455;BME280;56660;51.986;5.930;2022-08-21T12:50:44;101578.31;;;32.91;37.77
69455;BME280;56660;51.986;5.930;2022-08-21T12:53:15;101570.84;;;32.86;36.08
69455;BME280;56660;51.986;5.930;2022-08-21T12:55:49;101575.50;;;32.71;34.46
69455;BME280;56660;51.986;5.930;2022-08-21T12:58:18;101578.81;;;32.73;35.89
69455;BME280;56660;51.986;5.930;2022-08-21T13:00:47;101578.31;;;32.86;36.08
69455;BME280;56660;51.986;5.930;2022-08-21T13:03:16;101571.38;;;32.83;36.33
69455;BME280;56660;51.986;5.930;2022-08-21T13:05:42;101563.63;;;33.01;37.02
69455;BME280;56660;51.986;5.930;2022-08-21T13:08:09;101566.66;;;33.24;35.75
69455;BME280;56660;51.986;5.930;2022-08-21T13:10:37;101571.38;;;33.14;33.51
69455;BME280;56660;51.986;5.930;2022-08-21T13:13:09;101575.81;;;33.15;34.77
69455;BME280;56660;51.986;5.930;2022-08-21T13:15:42;101577.47;;;33.41;34.38
69455;BME280;56660;51.986;5.930;2022-08-21T13:18:08;101576.28;;;33.73;35.27
69455;BME280;56660;51.986;5.930;2022-08-21T13:20:46;101571.22;;;34.05;33.68
69455;BME280;56660;51.986;5.930;2022-08-21T13:23:16;101572.25;;;34.19;33.80
69455;BME280;56660;51.986;5.930;2022-08-21T13:25:45;101571.28;;;34.49;34.26
69455;BME280;56660;51.986;5.930;2022-08-21T13:28:12;101565.00;;;34.73;32.80
69455;BME280;56660;51.986;5.930;2022-08-21T13:30:40;101569.59;;;34.93;32.98
69455;BME280;56660;51.986;5.930;2022-08-21T13:33:09;101569.84;;;35.25;32.78
69455;BME280;56660;51.986;5.930;2022-08-21T13:35:46;101572.34;;;35.56;32.74